Time;durP1;ratioP1;P1;durP2;ratioP2;P2;SDS_P1;SDS_P2;PMS_P1;PMS_P2;Temp;Humidity;BMP_temperature;BMP_pressure;BME280_temperature;BME280_humidity;BME280_pressure;Samples;Min_cycle;Max_cycle;Signal;HPM_P1;HPM_P2
2021/12/05 00:24:07;;;;;;;;;2.67;2.00;;;;;-149.00;100.00;66333.84;5101190;27;45314;-76
2021/12/05 00:26:35;;;;;;;;;2.67;2.67;;;;;-149.00;100.00;66333.84;5099736;27;45361;-77
2021/12/05 00:29:16;;;;;;;;;1.00;1.00;;;;;-149.00;100.00;66333.84;5101036;27;45495;-76
2021/12/05 00:34:37;;;;;;;;;5.67;4.00;;;;;-149.00;100.00;66333.84;5100791;27;45317;-77
2021/12/05 01:06:46;;;;;;;;;3.00;1.67;;;;;-149.00;100.00;66333.84;5121044;27;45305;-77
2021/12/05 01:14:29;;;;;;;;;2.00;2.00;;;;;-149.00;100.00;66333.84;5120893;27;45844;-77
2021/12/05 01:16:55;;;;;;;;;3.00;2.67;;;;;-149.00;100.00;66333.84;5120864;27;45315;-77
2021/12/05 01:19:22;;;;;;;;;4.67;3.33;;;;;-149.00;100.00;66333.84;5121040;27;45459;-76
2021/12/05 01:21:52;;;;;;;;;2.00;2.00;;;;;-149.00;100.00;66333.84;5121050;27;45356;-76
2021/12/05 01:26:59;;;;;;;;;3.67;3.00;;;;;-149.00;100.00;66333.84;5120612;27;45287;-77
2021/12/05 02:37:08;;;;;;;;;0.33;0.33;;;;;-149.00;100.00;66333.84;5102568;27;46175;-76
2021/12/05 02:39:45;;;;;;;;;1.00;1.00;;;;;-149.00;100.00;66333.84;5102871;27;45222;-76
2021/12/05 02:42:15;;;;;;;;;0.67;0.67;;;;;-149.00;100.00;66333.84;5100848;27;45276;-77
2021/12/05 02:44:42;;;;;;;;;1.33;1.33;;;;;-149.00;100.00;66333.84;5101334;27;45310;-76
2021/12/05 02:47:15;;;;;;;;;0.67;0.67;;;;;-149.00;100.00;66333.84;5102631;27;45235;-77
2021/12/05 02:49:44;;;;;;;;;1.00;1.00;;;;;-149.00;100.00;66333.84;5102657;27;45393;-77
2021/12/05 02:52:18;;;;;;;;;0.00;0.00;;;;;-149.00;100.00;66333.84;5102729;27;45188;-76
2021/12/05 02:54:49;;;;;;;;;0.33;0.33;;;;;-149.00;100.00;66333.84;5102600;27;45376;-76
2021/12/05 02:57:18;;;;;;;;;1.00;1.00;;;;;-149.00;100.00;66333.84;5102135;27;46209;-75
2021/12/05 02:59:52;;;;;;;;;0.00;0.00;;;;;-149.00;100.00;66333.84;5102492;27;45276;-76
2021/12/05 03:02:25;;;;;;;;;0.00;0.00;;;;;-149.00;100.00;66333.84;5102596;27;45333;-75
2021/12/05 03:04:52;;;;;;;;;0.00;0.00;;;;;-149.00;100.00;66333.84;5102493;27;45214;-75
2021/12/05 03:07:26;;;;;;;;;0.00;0.00;;;;;-149.00;100.00;66333.84;5101064;27;48412;-76
2021/12/05 03:09:51;;;;;;;;;0.00;0.00;;;;;-149.00;100.00;66333.84;5102556;27;45290;-76
2021/12/05 03:12:18;;;;;;;;;1.00;1.00;;;;;-149.00;100.00;66333.84;5102233;27;45273;-76
2021/12/05 03:14:49;;;;;;;;;0.00;0.00;;;;;-149.00;100.00;66333.84;5101002;27;46288;-76
2021/12/05 03:17:15;;;;;;;;;0.00;0.00;;;;;-149.00;100.00;66333.84;5100577;27;47901;-76
2021/12/05 03:19:41;;;;;;;;;1.00;1.00;;;;;-149.00;100.00;66333.84;5100656;27;45884;-76
2021/12/05 03:22:07;;;;;;;;;0.00;0.00;;;;;-149.00;100.00;66333.84;5100998;27;45314;-76
2021/12/05 03:24:32;;;;;;;;;1.00;1.00;;;;;-149.00;100.00;66333.84;5102188;27;45214;-76
2021/12/05 03:26:58;;;;;;;;;0.00;0.00;;;;;-149.00;100.00;66333.84;5101719;27;47742;-76
2021/12/05 03:29:23;;;;;;;;;0.00;0.00;;;;;-149.00;100.00;66333.84;5100689;27;45292;-76
2021/12/05 03:31:51;;;;;;;;;0.33;0.33;;;;;-149.00;100.00;66333.84;5102280;27;45440;-75
2021/12/05 03:34:17;;;;;;;;;0.00;0.00;;;;;-149.00;100.00;66333.84;5100539;27;46042;-75
2021/12/05 03:36:50;;;;;;;;;0.00;0.00;;;;;-149.00;100.00;66333.84;5100537;27;47653;-75
2021/12/05 03:39:16;;;;;;;;;1.33;1.33;;;;;-149.00;100.00;66333.84;5100530;27;45160;-76
2021/12/05 03:41:42;;;;;;;;;0.00;0.00;;;;;-149.00;100.00;66333.84;5111772;27;45295;-76
2021/12/05 03:44:10;;;;;;;;;1.00;1.00;;;;;-149.00;100.00;66333.84;5122463;27;45363;-76
2021/12/05 03:46:37;;;;;;;;;1.00;1.00;;;;;-149.00;100.00;66333.84;5122297;27;45350;-76
2021/12/05 03:49:07;;;;;;;;;1.00;1.00;;;;;-149.00;100.00;66333.84;5120736;27;45332;-76
2021/12/05 03:51:38;;;;;;;;;0.33;0.33;;;;;-149.00;100.00;66333.84;5121064;27;45387;-76
2021/12/05 03:54:05;;;;;;;;;1.00;1.00;;;;;-149.00;100.00;66333.84;5122189;27;45293;-76
2021/12/05 03:56:33;;;;;;;;;1.00;1.00;;;;;-149.00;100.00;66333.84;5121884;27;45411;-76
2021/12/05 03:58:59;;;;;;;;;1.00;1.00;;;;;-149.00;100.00;66333.84;5120520;27;45279;-76
2021/12/05 04:01:25;;;;;;;;;2.00;1.00;;;;;-149.00;100.00;66333.84;5120908;27;45369;-76
2021/12/05 04:03:53;;;;;;;;;1.00;1.00;;;;;-149.00;100.00;66333.84;5120847;27;47256;-76
2021/12/05 04:06:20;;;;;;;;;1.67;1.67;;;;;-149.00;100.00;66333.84;5121850;27;46226;-76
2021/12/05 04:08:46;;;;;;;;;1.00;1.00;;;;;-149.00;100.00;66333.84;5121861;27;45384;-76
2021/12/05 04:11:22;;;;;;;;;1.00;1.00;;;;;-149.00;100.00;66333.84;5121819;27;45375;-76
2021/12/05 04:13:47;;;;;;;;;2.00;2.00;;;;;-149.00;100.00;66333.84;5121968;27;45326;-76
2021/12/05 04:16:14;;;;;;;;;1.00;1.00;;;;;-149.00;100.00;66333.84;5119843;27;47373;-76
2021/12/05 04:18:40;;;;;;;;;1.33;1.33;;;;;-149.00;100.00;66333.84;5121808;27;45235;-75
2021/12/05 04:21:06;;;;;;;;;1.00;1.00;;;;;-149.00;100.00;66333.84;5122156;27;45245;-76
2021/12/05 04:23:31;;;;;;;;;1.00;1.00;;;;;-149.00;100.00;66333.84;5121894;27;45291;-76
2021/12/05 04:25:57;;;;;;;;;1.00;1.00;;;;;-149.00;100.00;66333.84;5121655;27;45496;-76
2021/12/05 04:28:23;;;;;;;;;0.33;0.33;;;;;-149.00;100.00;66333.84;5121693;27;45228;-76
2021/12/05 04:30:50;;;;;;;;;2.00;0.00;;;;;-149.00;100.00;66333.84;5120541;27;45321;-75
2021/12/05 04:33:15;;;;;;;;;0.00;0.00;;;;;-149.00;100.00;66333.84;5121627;27;45249;-76
2021/12/05 04:35:41;;;;;;;;;1.67;1.00;;;;;-149.00;100.00;66333.84;5120188;27;45362;-76
2021/12/05 04:38:07;;;;;;;;;1.00;1.00;;;;;-149.00;100.00;66333.84;5121552;27;45369;-76
2021/12/05 04:40:35;;;;;;;;;2.00;1.00;;;;;-149.00;100.00;66333.84;5119852;27;45247;-76
2021/12/05 04:43:02;;;;;;;;;1.00;1.00;;;;;-149.00;100.00;66333.84;5099155;27;45955;-76
2021/12/05 04:45:29;;;;;;;;;1.00;1.00;;;;;-149.00;100.00;66333.84;5100681;27;46520;-76
2021/12/05 04:47:56;;;;;;;;;2.00;2.00;;;;;-149.00;100.00;66333.84;5100820;27;45321;-76
2021/12/05 04:50:24;;;;;;;;;1.00;1.00;;;;;-149.00;100.00;66333.84;5099640;27;45358;-75
2021/12/05 04:52:50;;;;;;;;;1.00;1.00;;;;;-149.00;100.00;66333.84;5099309;27;45512;-76
2021/12/05 04:55:17;;;;;;;;;1.00;1.00;;;;;-149.00;100.00;66333.84;5100642;27;45313;-75
2021/12/05 04:57:43;;;;;;;;;0.67;0.67;;;;;-149.00;100.00;66333.84;5100397;27;45253;-76
2021/12/05 05:00:26;;;;;;;;;1.00;1.00;;;;;-149.00;100.00;66333.84;5100647;27;45248;-76
2021/12/05 05:02:52;;;;;;;;;1.00;0.67;;;;;-149.00;100.00;66333.84;5100519;27;45220;-75
2021/12/05 05:05:18;;;;;;;;;0.67;0.67;;;;;-149.00;100.00;66333.84;5100564;27;45454;-76
2021/12/05 05:07:44;;;;;;;;;2.00;0.33;;;;;-149.00;100.00;66333.84;5100376;27;45255;-76
2021/12/05 05:10:15;;;;;;;;;1.33;1.33;;;;;-149.00;100.00;66333.84;5100734;27;45202;-76
2021/12/05 05:12:40;;;;;;;;;0.00;0.00;;;;;-149.00;100.00;66333.84;5100246;27;45337;-76
2021/12/05 05:15:07;;;;;;;;;1.00;1.00;;;;;-149.00;100.00;66333.84;5098826;27;48396;-76
2021/12/05 05:17:34;;;;;;;;;0.00;0.00;;;;;-149.00;100.00;66333.84;5099025;27;45889;-75
2021/12/05 05:20:05;;;;;;;;;0.00;0.00;;;;;-149.00;100.00;66333.84;5099284;27;45260;-76
2021/12/05 05:23:08;;;;;;;;;1.00;1.00;;;;;-149.00;100.00;66333.84;5100360;27;45312;-75
2021/12/05 05:49:57;;;;;;;;;1.00;1.00;;;;;-149.00;100.00;66333.84;5116739;27;45330;-76
2021/12/05 05:52:22;;;;;;;;;0.00;0.00;;;;;-149.00;100.00;66333.84;5124094;27;45334;-76
2021/12/05 05:54:49;;;;;;;;;1.00;1.00;;;;;-149.00;100.00;66333.84;5124289;27;45277;-76
2021/12/05 06:00:07;;;;;;;;;0.00;0.00;;;;;-149.00;100.00;66333.84;5123963;27;45186;-76
2021/12/05 06:05:38;;;;;;;;;1.00;1.00;;;;;-149.00;100.00;66333.84;5100793;27;45365;-75
2021/12/05 06:08:03;;;;;;;;;0.33;0.33;;;;;-149.00;100.00;66333.84;5101048;27;45657;-76
2021/12/05 06:10:31;;;;;;;;;2.00;1.00;;;;;-149.00;100.00;66333.84;5099929;27;45418;-76
2021/12/05 06:12:58;;;;;;;;;1.00;1.00;;;;;-149.00;100.00;66333.84;5123778;27;45281;-76
2021/12/05 06:15:25;;;;;;;;;2.67;1.00;;;;;-149.00;100.00;66333.84;5122450;27;46073;-76
2021/12/05 06:17:52;;;;;;;;;1.33;0.67;;;;;-149.00;100.00;66333.84;5123584;27;46606;-76
2021/12/05 06:20:22;;;;;;;;;2.33;1.67;;;;;-149.00;100.00;66333.84;5123747;27;45354;-76
2021/12/05 06:22:47;;;;;;;;;0.33;0.33;;;;;-149.00;100.00;66333.84;5123931;27;45176;-77
2021/12/05 06:25:19;;;;;;;;;3.33;3.00;;;;;-149.00;100.00;66333.84;5123642;27;45425;-76
2021/12/05 06:27:49;;;;;;;;;3.67;2.00;;;;;-149.00;100.00;66333.84;5121920;27;47176;-76
2021/12/05 06:30:39;;;;;;;;;2.67;2.67;;;;;-149.00;100.00;66333.84;5123491;27;45164;-77
2021/12/05 06:46:30;;;;;;;;;2.00;1.33;;;;;-149.00;100.00;66333.84;5102546;27;45218;-76
2021/12/05 06:48:55;;;;;;;;;1.00;1.00;;;;;-149.00;100.00;66333.84;5102439;27;46087;-76
2021/12/05 06:51:25;;;;;;;;;1.33;1.00;;;;;-149.00;100.00;66333.84;5135619;27;45278;-76
2021/12/05 06:53:51;;;;;;;;;1.00;0.00;;;;;-149.00;100.00;66333.84;5101622;27;45243;-77
2021/12/05 06:56:17;;;;;;;;;1.33;1.33;;;;;-149.00;100.00;66333.84;5102290;27;45455;-76
2021/12/05 06:58:43;;;;;;;;;2.67;2.00;;;;;-149.00;100.00;66333.84;5100962;27;47607;-76
2021/12/05 07:01:11;;;;;;;;;1.00;1.00;;;;;-149.00;100.00;66333.84;5101040;27;45325;-76
2021/12/05 07:03:42;;;;;;;;;1.00;1.00;;;;;-149.00;100.00;66333.84;5101264;27;45183;-76
2021/12/05 07:06:12;;;;;;;;;2.33;2.33;;;;;-149.00;100.00;66333.84;5102553;27;45315;-76
2021/12/05 07:08:41;;;;;;;;;2.00;2.00;;;;;-149.00;100.00;66333.84;5102418;27;45345;-76
2021/12/05 07:11:26;;;;;;;;;2.33;2.00;;;;;-149.00;100.00;66333.84;5102131;27;45455;-76
2021/12/05 07:42:35;;;;;;;;;1.00;1.00;;;;;-149.00;100.00;66333.84;5120244;27;45408;-77
2021/12/05 07:45:04;;;;;;;;;1.00;1.00;;;;;-149.00;100.00;66333.84;5122656;27;45442;-76
2021/12/05 07:47:32;;;;;;;;;1.00;1.00;;;;;-149.00;100.00;66333.84;5120761;27;46077;-76
2021/12/05 07:50:04;;;;;;;;;2.00;1.00;;;;;-149.00;100.00;66333.84;5110377;27;46214;-76
2021/12/05 07:52:30;;;;;;;;;2.00;2.00;;;;;-149.00;100.00;66333.84;5099612;27;45311;-78
2021/12/05 07:55:06;;;;;;;;;0.00;0.00;;;;;-149.00;100.00;66333.84;5099671;27;45422;-77
2021/12/05 07:57:42;;;;;;;;;1.67;1.00;;;;;-149.00;100.00;66333.84;5099511;27;45948;-77
2021/12/05 08:00:59;;;;;;;;;1.00;1.00;;;;;-149.00;100.00;66333.84;5099933;27;45991;-77
2021/12/05 08:16:40;;;;;;;;;1.67;1.67;;;;;-149.00;100.00;66333.84;5101247;27;45403;-77
2021/12/05 08:19:06;;;;;;;;;1.67;1.67;;;;;-149.00;100.00;66333.84;5100891;27;45695;-76
2021/12/05 08:21:32;;;;;;;;;2.67;2.67;;;;;-149.00;100.00;66333.84;5101197;27;46230;-76
2021/12/05 08:23:57;;;;;;;;;1.00;1.00;;;;;-149.00;100.00;66333.84;5099955;27;45379;-76
2021/12/05 08:26:30;;;;;;;;;1.33;1.33;;;;;-149.00;100.00;66333.84;5101071;27;45286;-75
2021/12/05 08:29:09;;;;;;;;;1.00;1.00;;;;;-149.00;100.00;66333.84;5101341;27;45254;-75
2021/12/05 09:28:20;;;;;;;;;2.67;1.00;;;;;-149.00;100.00;66333.84;5099741;27;45218;-78
2021/12/05 09:31:07;;;;;;;;;5.67;4.00;;;;;-149.00;100.00;66333.84;5099951;27;45291;-77
2021/12/05 10:01:54;;;;;;;;;5.00;4.33;;;;;-149.00;100.00;66333.84;5099256;27;45301;-77
2021/12/05 10:34:38;;;;;;;;;4.67;3.00;;;;;-149.00;100.00;66333.84;5100627;27;45341;-75
2021/12/05 10:37:24;;;;;;;;;2.00;2.00;;;;;-149.00;100.00;66333.84;5102170;27;45313;-78
2021/12/05 10:40:13;;;;;;;;;5.00;5.00;;;;;-149.00;100.00;66333.84;5098333;27;46203;-79
2021/12/05 10:42:45;;;;;;;;;8.33;8.33;;;;;-149.00;100.00;66333.84;5099382;27;47911;-77
2021/12/05 10:45:19;;;;;;;;;12.00;11.00;;;;;-149.00;100.00;66333.84;5102535;27;45267;-78
2021/12/05 10:47:48;;;;;;;;;8.00;8.00;;;;;-149.00;100.00;66333.84;5101933;27;45552;-77
2021/12/05 10:50:41;;;;;;;;;18.33;17.00;;;;;-149.00;100.00;66333.84;5099360;27;46096;-77
2021/12/05 10:53:25;;;;;;;;;9.00;8.67;;;;;-149.00;100.00;66333.84;5099494;27;47287;-79
2021/12/05 10:55:59;;;;;;;;;5.00;5.00;;;;;-149.00;100.00;66333.84;5094426;27;45372;-76
2021/12/05 10:58:32;;;;;;;;;3.33;2.67;;;;;-149.00;100.00;66333.84;5101673;27;45507;-76
2021/12/05 11:01:15;;;;;;;;;9.00;7.33;;;;;-149.00;100.00;66333.84;5101477;27;45496;-77
2021/12/05 11:03:43;;;;;;;;;5.00;5.00;;;;;-149.00;100.00;66333.84;5099404;27;47334;-75
2021/12/05 11:06:17;;;;;;;;;6.67;5.00;;;;;-149.00;100.00;66333.84;5102391;27;45359;-74
2021/12/05 11:08:42;;;;;;;;;7.67;7.67;;;;;-149.00;100.00;66333.84;5101167;27;45337;-76
2021/12/05 11:11:13;;;;;;;;;5.33;4.00;;;;;-149.00;100.00;66333.84;5102112;27;45287;-74
2021/12/05 11:13:43;;;;;;;;;4.67;4.67;;;;;-149.00;100.00;66333.84;5102365;27;46816;-74
2021/12/05 11:16:35;;;;;;;;;3.00;3.00;;;;;-149.00;100.00;66333.84;5102165;27;45336;-77
2021/12/05 11:19:07;;;;;;;;;8.00;4.33;;;;;-149.00;100.00;66333.84;5100908;27;45185;-76
2021/12/05 11:21:35;;;;;;;;;3.00;3.00;;;;;-149.00;100.00;66333.84;5101908;27;45281;-76
2021/12/05 11:24:21;;;;;;;;;5.00;3.00;;;;;-149.00;100.00;66333.84;5099615;27;47157;-77
2021/12/05 11:27:15;;;;;;;;;3.00;3.00;;;;;-149.00;100.00;66333.84;5100024;27;45611;-76
2021/12/05 11:29:54;;;;;;;;;8.00;7.00;;;;;-149.00;100.00;66333.84;5098398;27;45364;-76
2021/12/05 11:32:34;;;;;;;;;2.33;2.00;;;;;-149.00;100.00;66333.84;5100427;27;46117;-76
2021/12/05 11:35:27;;;;;;;;;3.00;2.00;;;;;-149.00;100.00;66333.84;5101991;27;46136;-77
2021/12/05 11:38:16;;;;;;;;;2.67;1.33;;;;;-149.00;100.00;66333.84;5100509;27;45919;-77
2021/12/05 11:40:44;;;;;;;;;3.00;3.00;;;;;-149.00;100.00;66333.84;5104900;27;45380;-78
2021/12/05 11:43:13;;;;;;;;;4.33;4.33;;;;;-149.00;100.00;66333.84;5120825;27;46394;-75
2021/12/05 11:45:50;;;;;;;;;9.33;9.33;;;;;-149.00;100.00;66333.84;5122365;27;45281;-77
2021/12/05 11:48:18;;;;;;;;;12.00;10.67;;;;;-149.00;100.00;66333.84;5122209;27;45586;-76
2021/12/05 11:50:43;;;;;;;;;8.00;6.67;;;;;-149.00;100.00;66333.84;5105808;27;46382;-77
2021/12/05 11:53:09;;;;;;;;;5.33;5.00;;;;;-149.00;100.00;66333.84;5100641;27;45481;-77
2021/12/05 11:55:34;;;;;;;;;8.33;7.00;;;;;-149.00;100.00;66333.84;5100780;27;46751;-77
2021/12/05 11:58:01;;;;;;;;;6.33;5.33;;;;;-149.00;100.00;66333.84;5100015;27;45267;-77
2021/12/05 12:00:27;;;;;;;;;7.00;5.00;;;;;-149.00;100.00;66333.84;5099365;27;45489;-77
2021/12/05 12:02:53;;;;;;;;;7.00;7.00;;;;;-149.00;100.00;66333.84;5100276;27;45394;-77
2021/12/05 12:05:28;;;;;;;;;5.33;4.67;;;;;-149.00;100.00;66333.84;5099204;27;47291;-77
2021/12/05 12:08:05;;;;;;;;;4.00;1.33;;;;;-149.00;100.00;66333.84;5099361;27;45357;-77
2021/12/05 12:10:58;;;;;;;;;4.33;3.67;;;;;-149.00;100.00;66333.84;5101222;27;45265;-77
2021/12/05 12:13:29;;;;;;;;;5.33;5.00;;;;;-149.00;100.00;66333.84;5099349;27;46000;-77
2021/12/05 12:16:02;;;;;;;;;9.67;9.67;;;;;-149.00;100.00;66333.84;5099998;27;45361;-77
2021/12/05 12:18:32;;;;;;;;;5.33;4.33;;;;;-149.00;100.00;66333.84;5100872;27;45312;-78
2021/12/05 12:21:02;;;;;;;;;11.00;11.00;;;;;-149.00;100.00;66333.84;5100777;27;45224;-78
2021/12/05 12:23:28;;;;;;;;;8.00;6.33;;;;;-149.00;100.00;66333.84;5099002;27;45508;-77
2021/12/05 12:25:58;;;;;;;;;7.33;6.33;;;;;-149.00;100.00;66333.84;5099615;27;45437;-76
2021/12/05 12:28:25;;;;;;;;;10.67;10.67;;;;;-149.00;100.00;66333.84;5099917;27;45354;-76
2021/12/05 12:30:58;;;;;;;;;14.67;14.00;;;;;-149.00;100.00;66333.84;5100902;27;45311;-77
2021/12/05 12:33:34;;;;;;;;;7.00;7.00;;;;;-149.00;100.00;66333.84;5098794;27;47399;-79
2021/12/05 12:36:00;;;;;;;;;4.00;4.00;;;;;-149.00;100.00;66333.84;5127718;27;47197;-78
2021/12/05 12:38:29;;;;;;;;;2.33;2.33;;;;;-149.00;100.00;66333.84;5099998;27;45318;-77
2021/12/05 12:41:19;;;;;;;;;3.00;1.33;;;;;-149.00;100.00;66333.84;5100715;27;45287;-77
2021/12/05 12:43:59;;;;;;;;;6.67;6.67;;;;;-149.00;100.00;66333.84;5098323;27;46323;-79
2021/12/05 12:46:44;;;;;;;;;12.00;10.33;;;;;-149.00;100.00;66333.84;5131726;27;47857;-79
2021/12/05 12:49:15;;;;;;;;;2.00;2.00;;;;;-149.00;100.00;66333.84;5096302;27;45302;-79
2021/12/05 12:51:44;;;;;;;;;3.00;3.00;;;;;-149.00;100.00;66333.84;5098718;27;45445;-78
2021/12/05 12:54:39;;;;;;;;;4.33;4.33;;;;;-149.00;100.00;66333.84;5098376;27;46258;-79
2021/12/05 12:57:13;;;;;;;;;3.33;3.33;;;;;-149.00;100.00;66333.84;5100176;27;46581;-79
2021/12/05 12:59:56;;;;;;;;;4.67;4.67;;;;;-149.00;100.00;66333.84;5098865;27;45377;-84
2021/12/05 13:02:38;;;;;;;;;6.00;6.00;;;;;-149.00;100.00;66333.84;5100859;27;45554;-81
2021/12/05 13:05:35;;;;;;;;;2.67;2.67;;;;;-149.00;100.00;66333.84;5099117;27;46886;-81
2021/12/05 13:11:04;;;;;;;;;3.00;3.00;;;;;-149.00;100.00;66333.84;5099988;27;45294;-77
2021/12/05 13:13:32;;;;;;;;;4.67;4.67;;;;;-149.00;100.00;66333.84;5100901;27;45205;-80
2021/12/05 13:16:19;;;;;;;;;8.33;7.00;;;;;-149.00;100.00;66333.84;5099186;27;46500;-76
2021/12/05 13:18:58;;;;;;;;;6.00;4.00;;;;;-149.00;100.00;66333.84;5100084;27;46273;-76
2021/12/05 13:21:36;;;;;;;;;9.67;9.67;;;;;-149.00;100.00;66333.84;5099028;27;45235;-77
2021/12/05 13:24:17;;;;;;;;;6.33;5.00;;;;;-149.00;100.00;66333.84;5099056;27;45424;-77
2021/12/05 13:26:43;;;;;;;;;7.00;6.33;;;;;-149.00;100.00;66333.84;5098748;27;46200;-78
2021/12/05 13:29:17;;;;;;;;;8.00;8.00;;;;;-149.00;100.00;66333.84;5098593;27;46642;-80
2021/12/05 13:31:53;;;;;;;;;5.00;5.00;;;;;-149.00;100.00;66333.84;5100181;27;45376;-79
2021/12/05 13:34:42;;;;;;;;;8.67;7.00;;;;;-149.00;100.00;66333.84;5098916;27;45215;-79
2021/12/05 13:37:10;;;;;;;;;5.00;5.00;;;;;-149.00;100.00;66333.84;5098545;27;46087;-80
2021/12/05 13:39:38;;;;;;;;;8.67;5.33;;;;;-149.00;100.00;66333.84;5098576;27;47169;-79
2021/12/05 13:42:13;;;;;;;;;15.00;14.00;;;;;-149.00;100.00;66333.84;5112931;27;45312;-79
2021/12/05 13:44:57;;;;;;;;;11.00;11.00;;;;;-149.00;100.00;66333.84;5119397;27;45260;-78
2021/12/05 13:47:28;;;;;;;;;5.00;5.00;;;;;-149.00;100.00;66333.84;5119215;27;46309;-78
2021/12/05 13:49:55;;;;;;;;;6.00;5.67;;;;;-149.00;100.00;66333.84;5123967;27;45448;-79
2021/12/05 13:52:36;;;;;;;;;6.67;6.67;;;;;-149.00;100.00;66333.84;5122878;27;45336;-79
2021/12/05 13:55:39;;;;;;;;;7.00;7.00;;;;;-149.00;100.00;66333.84;5124207;27;45381;-79
2021/12/05 13:58:36;;;;;;;;;8.67;8.67;;;;;-149.00;100.00;66333.84;5124010;27;45493;-79
2021/12/05 14:01:27;;;;;;;;;10.00;8.00;;;;;-149.00;100.00;66333.84;5123891;27;46387;-79
2021/12/05 14:04:15;;;;;;;;;6.33;6.33;;;;;-149.00;100.00;66333.84;5123913;27;45247;-77
2021/12/05 14:07:01;;;;;;;;;2.67;2.67;;;;;-149.00;100.00;66333.84;5122738;27;45440;-76
2021/12/05 14:09:47;;;;;;;;;11.00;9.33;;;;;-149.00;100.00;66333.84;5123904;27;45341;-79
2021/12/05 14:12:14;;;;;;;;;7.00;6.33;;;;;-149.00;100.00;66333.84;5122326;27;47144;-78
2021/12/05 14:14:53;;;;;;;;;6.67;6.67;;;;;-149.00;100.00;66333.84;5123845;27;45332;-78
2021/12/05 14:17:35;;;;;;;;;6.00;6.00;;;;;-149.00;100.00;66333.84;5122450;27;45320;-78
2021/12/05 14:20:10;;;;;;;;;11.00;11.00;;;;;-149.00;100.00;66333.84;5120654;27;45306;-79
2021/12/05 14:22:37;;;;;;;;;13.33;13.00;;;;;-149.00;100.00;66333.84;5100220;27;45380;-77
2021/12/05 14:25:18;;;;;;;;;15.33;15.00;;;;;-149.00;100.00;66333.84;5100890;27;46055;-77
2021/12/05 14:27:50;;;;;;;;;17.33;14.67;;;;;-149.00;100.00;66333.84;5099941;27;45737;-79
2021/12/05 14:30:21;;;;;;;;;12.67;12.33;;;;;-149.00;100.00;66333.84;5099190;27;45534;-82
2021/12/05 14:32:49;;;;;;;;;11.00;9.33;;;;;-149.00;100.00;66333.84;5101640;27;47447;-82
2021/12/05 14:35:23;;;;;;;;;7.00;5.67;;;;;-149.00;100.00;66333.84;5102469;27;45308;-78
2021/12/05 14:37:51;;;;;;;;;12.00;12.00;;;;;-149.00;100.00;66333.84;5103269;27;45223;-78
2021/12/05 14:40:22;;;;;;;;;12.33;12.33;;;;;-149.00;100.00;66333.84;5102812;27;45322;-77
2021/12/05 14:42:50;;;;;;;;;11.33;10.67;;;;;-149.00;100.00;66333.84;5081900;27;45452;-77
2021/12/05 14:45:21;;;;;;;;;8.67;8.67;;;;;-149.00;100.00;66333.84;5082309;28;45333;-77
2021/12/05 14:47:52;;;;;;;;;9.67;9.67;;;;;-149.00;100.00;66333.84;5082207;28;45402;-77
2021/12/05 14:50:22;;;;;;;;;14.67;14.00;;;;;-149.00;100.00;66333.84;5084884;27;46307;-77
2021/12/05 14:52:51;;;;;;;;;8.67;8.00;;;;;-149.00;100.00;66333.84;5101606;27;47091;-77
2021/12/05 14:55:18;;;;;;;;;14.00;14.00;;;;;-149.00;100.00;66333.84;5101102;27;45411;-77
2021/12/05 14:57:49;;;;;;;;;6.33;6.33;;;;;-149.00;100.00;66333.84;5100938;27;45383;-78
2021/12/05 15:00:21;;;;;;;;;10.00;9.00;;;;;-149.00;100.00;66333.84;5100416;27;46507;-76
2021/12/05 15:02:47;;;;;;;;;19.33;16.33;;;;;-149.00;100.00;66333.84;5100899;27;48054;-78
2021/12/05 15:05:17;;;;;;;;;5.33;4.33;;;;;-149.00;100.00;66333.84;5101000;27;45493;-77
2021/12/05 15:07:44;;;;;;;;;7.33;7.00;;;;;-149.00;100.00;66333.84;5102422;27;45353;-77
2021/12/05 15:10:11;;;;;;;;;11.00;11.00;;;;;-149.00;100.00;66333.84;5102416;27;45323;-78
2021/12/05 15:12:37;;;;;;;;;8.00;6.67;;;;;-149.00;100.00;66333.84;5100646;27;47369;-78
2021/12/05 15:15:11;;;;;;;;;4.67;4.00;;;;;-149.00;100.00;66333.84;5102483;27;45268;-77
2021/12/05 15:17:40;;;;;;;;;3.00;3.00;;;;;-149.00;100.00;66333.84;5101026;27;45239;-76
2021/12/05 15:20:26;;;;;;;;;2.33;2.33;;;;;-149.00;100.00;66333.84;5102170;27;45155;-78
2021/12/05 15:22:59;;;;;;;;;2.00;2.00;;;;;-149.00;100.00;66333.84;5100740;27;46452;-78
2021/12/05 15:25:28;;;;;;;;;2.00;2.00;;;;;-149.00;100.00;66333.84;5100530;27;45322;-78
2021/12/05 15:27:54;;;;;;;;;3.33;3.33;;;;;-149.00;100.00;66333.84;5094708;27;45412;-78
2021/12/05 15:30:28;;;;;;;;;2.67;2.67;;;;;-149.00;100.00;66333.84;5118069;27;46160;-77
2021/12/05 15:32:59;;;;;;;;;3.67;3.33;;;;;-149.00;100.00;66333.84;5101922;27;46171;-77
2021/12/05 15:35:26;;;;;;;;;2.33;2.33;;;;;-149.00;100.00;66333.84;5102009;27;45234;-77
2021/12/05 15:37:56;;;;;;;;;2.00;2.00;;;;;-149.00;100.00;66333.84;5100476;27;45444;-79
2021/12/05 15:40:24;;;;;;;;;1.00;1.00;;;;;-149.00;100.00;66333.84;5101714;27;45502;-78
2021/12/05 15:42:50;;;;;;;;;1.67;1.67;;;;;-149.00;100.00;66333.84;5096684;27;47545;-78
2021/12/05 15:45:19;;;;;;;;;0.00;0.00;;;;;-149.00;100.00;66333.84;5101340;27;45255;-79
2021/12/05 15:47:46;;;;;;;;;3.67;2.00;;;;;-149.00;100.00;66333.84;5099990;27;45513;-78
2021/12/05 15:50:22;;;;;;;;;2.33;1.00;;;;;-149.00;100.00;66333.84;5099166;27;46303;-77
2021/12/05 15:52:53;;;;;;;;;2.00;2.00;;;;;-149.00;100.00;66333.84;5101361;27;45426;-80
2021/12/05 15:55:26;;;;;;;;;5.00;5.00;;;;;-149.00;100.00;66333.84;5100944;27;45398;-78
2021/12/05 15:58:20;;;;;;;;;3.00;3.00;;;;;-149.00;100.00;66333.84;5098653;27;45479;-78
2021/12/05 16:00:58;;;;;;;;;2.00;2.00;;;;;-149.00;100.00;66333.84;5100909;27;45490;-78
2021/12/05 16:03:36;;;;;;;;;3.00;2.67;;;;;-149.00;100.00;66333.84;5101160;27;45389;-77
2021/12/05 16:06:04;;;;;;;;;4.00;3.00;;;;;-149.00;100.00;66333.84;5099549;27;45892;-78
2021/12/05 16:08:43;;;;;;;;;3.67;3.67;;;;;-149.00;100.00;66333.84;5099517;27;45366;-78
2021/12/05 16:11:26;;;;;;;;;5.33;5.33;;;;;-149.00;100.00;66333.84;5099319;27;45471;-82
2021/12/05 16:13:53;;;;;;;;;7.00;7.00;;;;;-149.00;100.00;66333.84;5099676;27;47193;-82
2021/12/05 16:16:26;;;;;;;;;3.67;3.33;;;;;-149.00;100.00;66333.84;5101419;27;45377;-82
2021/12/05 16:19:56;;;;;;;;;3.33;3.33;;;;;-149.00;100.00;66333.84;5099253;27;45466;-80
2021/12/05 16:22:51;;;;;;;;;4.00;4.00;;;;;-149.00;100.00;66333.84;5056332;28;45928;-81
2021/12/05 16:25:18;;;;;;;;;8.00;6.00;;;;;-149.00;100.00;66333.84;5047698;27;45417;-76
2021/12/05 16:28:12;;;;;;;;;15.00;15.00;;;;;-149.00;100.00;66333.84;5091364;27;45289;-77
2021/12/05 16:30:48;;;;;;;;;11.00;11.00;;;;;-149.00;100.00;66333.84;5100474;27;45398;-77
2021/12/05 16:33:16;;;;;;;;;44.50;37.00;;;;;-149.00;100.00;66333.84;5101575;27;46261;-77
2021/12/05 16:35:43;;;;;;;;;17.00;16.33;;;;;-149.00;100.00;66333.84;5100317;27;47905;-77
2021/12/05 16:38:29;;;;;;;;;27.50;22.50;;;;;-149.00;100.00;66333.84;5099840;27;45698;-77
2021/12/05 16:41:09;;;;;;;;;18.00;16.00;;;;;-149.00;100.00;66333.84;5100246;27;45341;-77
2021/12/05 16:43:38;;;;;;;;;21.33;20.33;;;;;-149.00;100.00;66333.84;5100252;27;45441;-76
2021/12/05 16:46:11;;;;;;;;;17.00;16.00;;;;;-149.00;100.00;66333.84;5100269;27;46014;-76
2021/12/05 16:48:38;;;;;;;;;15.00;15.00;;;;;-149.00;100.00;66333.84;5100627;27;45575;-78
2021/12/05 16:51:39;;;;;;;;;18.33;17.33;;;;;-149.00;100.00;66333.84;5099009;27;45360;-78
2021/12/05 16:54:24;;;;;;;;;25.50;23.50;;;;;-149.00;100.00;66333.84;5096414;27;45275;-79
2021/12/05 16:56:54;;;;;;;;;14.33;14.33;;;;;-149.00;100.00;66333.84;5098746;27;47017;-79
2021/12/05 16:59:40;;;;;;;;;16.00;15.33;;;;;-149.00;100.00;66333.84;5100739;27;45281;-77
2021/12/05 17:02:19;;;;;;;;;22.67;20.33;;;;;-149.00;100.00;66333.84;5089121;27;45470;-76
2021/12/05 17:05:03;;;;;;;;;10.00;10.00;;;;;-149.00;100.00;66333.84;5101392;27;45291;-76
2021/12/05 17:07:56;;;;;;;;;12.33;12.00;;;;;-149.00;100.00;66333.84;5102285;27;45823;-76